Terminal Aerodrome Forecast
Issued by NWS Sioux Falls, SD

Home | Current Version | Previous Version | Graphics & Text | Print | Product List | Glossary On
Versions: 1 2 3 4 5 6 7 8 9 10 11 12 13 14 15 16 17 18
000
FTUS43 KFSD 261700
TAFHON
TAF
KHON 261720Z 2618/2718 12005KT P6SM SCT080 BKN250
     FM270000 11007KT P6SM BKN080
     FM270600 13006KT P6SM SCT060 BKN100
     FM271200 15007KT P6SM SCT050 BKN100
      TEMPO 2713/2717 BKN050=

USA.gov is the U.S. government's official web portal to all federal, state and local government web resources and services.